createdAt,value
2018-09-02T00:01:01.322Z,7.97
2018-09-02T00:03:30.451Z,10.70
2018-09-02T00:05:59.214Z,10.73
2018-09-02T00:08:27.999Z,12.23
2018-09-02T00:10:57.091Z,9.80
2018-09-02T00:13:25.863Z,7.83
2018-09-02T00:15:54.769Z,7.40
2018-09-02T00:18:23.492Z,10.47
2018-09-02T00:20:52.253Z,6.47
2018-09-02T00:23:21.045Z,11.63
2018-09-02T00:25:49.804Z,14.27
2018-09-02T00:28:18.562Z,8.13
2018-09-02T00:30:47.392Z,10.03
2018-09-02T00:33:16.269Z,6.40
2018-09-02T00:35:45.029Z,8.37
2018-09-02T00:38:13.777Z,7.83
2018-09-02T00:40:42.567Z,11.43
2018-09-02T00:43:11.365Z,8.93
2018-09-02T00:45:40.182Z,6.90
2018-09-02T00:48:09.028Z,9.30
2018-09-02T00:50:38.181Z,11.50
2018-09-02T00:53:06.908Z,8.77
2018-09-02T00:55:35.700Z,13.30
2018-09-02T00:58:04.653Z,9.20
2018-09-02T01:00:33.505Z,11.43
2018-09-02T01:03:02.291Z,15.13
2018-09-02T01:05:31.053Z,16.30
2018-09-02T01:07:59.944Z,11.80
2018-09-02T01:10:28.700Z,12.60
2018-09-02T01:12:57.450Z,9.13
2018-09-02T01:15:26.292Z,14.10
2018-09-02T01:17:55.067Z,13.53
2018-09-02T01:20:23.939Z,11.73
2018-09-02T01:22:52.741Z,10.97
2018-09-02T01:25:21.615Z,10.03
2018-09-02T01:27:50.418Z,14.50
2018-09-02T01:30:19.185Z,9.77
2018-09-02T01:32:47.992Z,12.83
2018-09-02T01:35:22.146Z,18.83
2018-09-02T01:37:50.935Z,14.90
2018-09-02T01:40:19.745Z,11.87
2018-09-02T01:42:48.555Z,15.77
2018-09-02T01:45:17.354Z,14.70
2018-09-02T01:47:46.135Z,13.93
2018-09-02T01:50:17.187Z,15.33
2018-09-02T01:52:45.976Z,13.90
2018-09-02T01:55:14.790Z,15.10
2018-09-02T01:57:43.545Z,12.67
2018-09-02T02:00:12.410Z,13.17
2018-09-02T02:02:41.201Z,13.93
2018-09-02T02:05:10.013Z,14.90
2018-09-02T02:07:38.795Z,12.10
2018-09-02T02:10:08.024Z,14.30
2018-09-02T02:12:36.790Z,14.23
2018-09-02T02:15:05.630Z,16.87
2018-09-02T02:17:34.421Z,20.37
2018-09-02T02:20:03.185Z,21.10
2018-09-02T02:22:32.345Z,20.13
2018-09-02T02:25:01.386Z,14.47
2018-09-02T02:27:30.208Z,20.57
2018-09-02T02:29:59.459Z,16.23
2018-09-02T02:32:28.212Z,21.63
2018-09-02T02:34:57.015Z,23.37
2018-09-02T02:37:25.810Z,21.07
2018-09-02T02:39:54.573Z,13.50
2018-09-02T02:42:23.374Z,19.57
2018-09-02T02:44:52.201Z,14.23
2018-09-02T02:47:20.975Z,14.73
2018-09-02T02:49:49.712Z,18.80
2018-09-02T02:52:18.504Z,14.20
2018-09-02T02:54:47.326Z,16.03
2018-09-02T02:57:16.076Z,14.00
2018-09-02T02:59:44.889Z,18.43
2018-09-02T03:02:13.697Z,15.17
2018-09-02T03:04:42.469Z,20.07
2018-09-02T03:07:12.169Z,19.97
2018-09-02T03:09:40.924Z,18.30
2018-09-02T03:12:10.524Z,18.70
2018-09-02T03:14:39.413Z,21.00
2018-09-02T03:17:08.231Z,21.57
2018-09-02T03:19:36.980Z,20.13
2018-09-02T03:22:05.782Z,19.10
2018-09-02T03:24:34.556Z,21.93
2018-09-02T03:27:03.354Z,22.07
2018-09-02T03:29:32.158Z,22.53
2018-09-02T03:32:00.981Z,23.20
2018-09-02T03:34:29.760Z,20.63
2018-09-02T03:36:58.534Z,20.53
2018-09-02T03:39:27.307Z,18.67
2018-09-02T03:41:56.094Z,24.73
2018-09-02T03:44:28.128Z,25.63
2018-09-02T03:47:30.353Z,20.37
2018-09-02T03:50:02.379Z,25.47
2018-09-02T03:52:32.823Z,20.80
2018-09-02T03:55:07.714Z,27.40
2018-09-02T03:57:43.879Z,21.37
2018-09-02T04:00:17.633Z,25.60
2018-09-02T04:03:07.864Z,23.93
2018-09-02T04:05:39.141Z,21.70
2018-09-02T04:08:15.330Z,25.33
2018-09-02T04:10:48.565Z,25.10
2018-09-02T04:13:35.010Z,28.87
2018-09-02T04:16:14.765Z,26.73
2018-09-02T04:18:54.536Z,24.53
2018-09-02T04:21:56.590Z,33.57
2018-09-02T04:24:33.064Z,31.97
2018-09-02T04:36:33.282Z,28.50
2018-09-02T04:39:27.161Z,29.07
2018-09-02T04:42:26.758Z,34.40
2018-09-02T04:45:03.249Z,32.87
2018-09-02T04:47:57.315Z,29.03
2018-09-02T04:50:33.946Z,28.83
2018-09-02T04:53:31.603Z,29.47
2018-09-02T04:56:10.182Z,25.57
2018-09-02T04:58:47.882Z,34.77
2018-09-02T05:01:24.582Z,33.57
2018-09-02T05:04:02.692Z,24.87
2018-09-02T05:06:40.290Z,23.93
2018-09-02T05:09:19.359Z,27.33
2018-09-02T05:11:56.585Z,30.70
2018-09-02T05:14:33.608Z,24.00
2018-09-02T05:17:11.563Z,26.80
2018-09-02T05:19:49.697Z,31.20
2018-09-02T05:22:27.549Z,23.47
2018-09-02T05:25:04.489Z,27.67
2018-09-02T05:27:42.347Z,21.77
2018-09-02T05:30:20.411Z,24.40
2018-09-02T05:32:58.770Z,22.60
2018-09-02T05:35:35.557Z,20.47
2018-09-02T05:38:08.984Z,22.40
2018-09-02T05:40:41.119Z,17.17
2018-09-02T05:43:13.565Z,16.80
2018-09-02T05:45:45.638Z,16.13
2018-09-02T05:48:17.642Z,15.73
2018-09-02T05:50:49.680Z,17.93
2018-09-02T05:53:20.183Z,15.00
2018-09-02T05:55:55.219Z,16.30
2018-09-02T05:58:26.230Z,17.70
2018-09-02T06:00:58.552Z,25.83
2018-09-02T06:03:30.305Z,18.13
2018-09-02T06:06:01.195Z,19.30
2018-09-02T06:08:32.116Z,20.47
2018-09-02T06:11:03.392Z,17.50
2018-09-02T06:13:34.421Z,16.50
2018-09-02T06:16:05.873Z,16.53
2018-09-02T06:18:50.402Z,13.33
2018-09-02T06:21:24.489Z,18.70
2018-09-02T06:23:58.811Z,20.27
2018-09-02T06:26:33.100Z,18.03
2018-09-02T06:29:03.956Z,16.47
2018-09-02T06:31:36.900Z,16.47
2018-09-02T06:34:05.850Z,15.30
2018-09-02T06:36:34.644Z,17.07
2018-09-02T06:39:04.452Z,18.50
2018-09-02T06:41:33.267Z,17.97
2018-09-02T06:44:02.072Z,22.50
2018-09-02T06:46:30.862Z,19.20
2018-09-02T06:48:59.777Z,16.30
2018-09-02T06:51:28.521Z,16.40
2018-09-02T06:53:57.309Z,16.47
2018-09-02T06:56:27.172Z,17.47
2018-09-02T06:58:56.880Z,13.00
2018-09-02T07:01:26.248Z,13.83
2018-09-02T07:03:55.675Z,14.83
2018-09-02T07:06:24.708Z,16.13
2018-09-02T07:08:53.634Z,20.13
2018-09-02T07:11:22.484Z,12.50
2018-09-02T07:13:51.301Z,16.00
2018-09-02T07:16:20.178Z,12.63
2018-09-02T07:18:48.996Z,14.40
2018-09-02T07:21:19.306Z,12.63
2018-09-02T07:23:48.048Z,11.70
2018-09-02T07:26:17.005Z,13.67
2018-09-02T07:28:46.446Z,14.77
2018-09-02T07:31:17.045Z,12.07
2018-09-02T07:33:46.957Z,12.63
2018-09-02T07:36:20.427Z,17.60
2018-09-02T07:38:50.348Z,13.80
2018-09-02T07:41:19.441Z,13.27
2018-09-02T07:43:49.469Z,17.80
2018-09-02T07:46:19.896Z,15.17
2018-09-02T07:48:49.735Z,14.47
2018-09-02T07:51:19.571Z,17.63
2018-09-02T07:53:49.039Z,16.67
2018-09-02T07:56:17.913Z,16.47
2018-09-02T07:58:46.704Z,14.07
2018-09-02T08:01:17.995Z,15.37
2018-09-02T08:03:47.215Z,14.43
2018-09-02T08:06:16.530Z,17.10
2018-09-02T08:08:46.170Z,12.57
2018-09-02T08:11:15.018Z,15.97
2018-09-02T08:13:43.861Z,13.40
2018-09-02T08:16:18.445Z,12.70
2018-09-02T08:18:48.637Z,14.47
2018-09-02T08:21:18.129Z,14.27
2018-09-02T08:23:48.074Z,15.90
2018-09-02T08:26:17.164Z,15.63
2018-09-02T08:29:00.835Z,16.20
2018-09-02T08:31:29.671Z,15.70
2018-09-02T08:33:59.634Z,14.40
2018-09-02T08:36:29.932Z,12.10
2018-09-02T08:38:59.704Z,13.90
2018-09-02T08:41:29.645Z,13.40
2018-09-02T08:43:58.510Z,17.20
2018-09-02T08:46:29.139Z,14.50
2018-09-02T08:48:57.971Z,10.70
2018-09-02T08:51:28.231Z,10.30
2018-09-02T08:53:57.516Z,16.50
2018-09-02T08:56:26.970Z,9.33
2018-09-02T08:58:57.514Z,8.47
2018-09-02T09:01:26.361Z,10.60
2018-09-02T09:03:57.530Z,8.20
2018-09-02T09:06:28.017Z,10.43
2018-09-02T09:08:58.452Z,9.10
2018-09-02T09:11:29.932Z,6.80
2018-09-02T09:14:00.549Z,6.50
2018-09-02T09:16:31.569Z,9.23
2018-09-02T09:19:02.199Z,8.33
2018-09-02T09:21:31.005Z,14.93
2018-09-02T09:23:59.873Z,7.20
2018-09-02T09:26:28.623Z,9.17
2018-09-02T09:28:57.670Z,10.40
2018-09-02T09:31:26.518Z,7.50
2018-09-02T09:33:55.282Z,6.90
2018-09-02T09:36:24.104Z,7.53
2018-09-02T09:38:52.878Z,6.43
2018-09-02T09:41:21.701Z,5.33
2018-09-02T09:43:50.478Z,9.77
2018-09-02T09:46:20.215Z,5.93
2018-09-02T09:48:49.033Z,4.60
2018-09-02T09:51:17.835Z,6.53
2018-09-02T09:53:46.616Z,8.80
2018-09-02T09:56:15.419Z,7.50
2018-09-02T09:58:44.179Z,6.30
2018-09-02T10:01:12.994Z,5.20
2018-09-02T10:03:41.827Z,4.50
2018-09-02T10:06:10.611Z,6.23
2018-09-02T10:08:39.423Z,5.67
2018-09-02T10:11:08.200Z,8.03
2018-09-02T10:13:37.031Z,8.30
2018-09-02T10:16:06.630Z,9.93
2018-09-02T10:18:35.522Z,6.93
2018-09-02T10:21:04.377Z,5.60
2018-09-02T10:23:33.148Z,11.00
2018-09-02T10:26:02.000Z,3.80
2018-09-02T10:28:30.770Z,4.37
2018-09-02T10:30:59.569Z,4.50
2018-09-02T10:33:28.873Z,5.10
2018-09-02T10:35:57.581Z,3.73
2018-09-02T10:38:26.455Z,4.77
2018-09-02T10:40:55.355Z,3.90
2018-09-02T10:43:24.111Z,3.57
2018-09-02T10:45:52.957Z,4.50
2018-09-02T10:48:28.410Z,6.50
2018-09-02T10:50:57.181Z,4.97
2018-09-02T10:53:25.937Z,7.63
2018-09-02T10:55:54.775Z,6.10
2018-09-02T10:58:23.512Z,6.23
2018-09-02T11:00:52.324Z,3.70
2018-09-02T11:03:23.614Z,5.30
2018-09-02T11:05:55.101Z,4.60
2018-09-02T11:08:24.036Z,4.43
2018-09-02T11:10:52.851Z,3.20
2018-09-02T11:13:22.977Z,3.10
2018-09-02T11:15:51.861Z,5.03
2018-09-02T11:18:20.713Z,4.50
2018-09-02T11:20:49.574Z,7.50
2018-09-02T11:23:18.718Z,3.93
2018-09-02T11:25:48.917Z,3.53
2018-09-02T11:28:17.717Z,5.60
2018-09-02T11:30:47.489Z,5.80
2018-09-02T11:33:17.800Z,3.00
2018-09-02T11:35:46.710Z,4.73
2018-09-02T11:38:16.048Z,2.73
2018-09-02T11:40:44.864Z,3.70
2018-09-02T11:43:13.662Z,5.30
2018-09-02T11:45:44.096Z,3.90
2018-09-02T11:48:14.241Z,3.03
2018-09-02T11:50:44.715Z,4.60
2018-09-02T11:53:13.531Z,3.37
2018-09-02T11:55:43.100Z,6.83
2018-09-02T11:58:11.907Z,3.57
2018-09-02T12:00:41.450Z,3.23
2018-09-02T12:03:10.994Z,3.00
2018-09-02T12:05:40.491Z,3.43
2018-09-02T12:08:09.212Z,6.90
2018-09-02T12:10:40.107Z,3.53
2018-09-02T12:13:10.360Z,4.67
2018-09-02T12:15:39.333Z,4.00
2018-09-02T12:18:08.187Z,8.23
2018-09-02T12:20:37.061Z,2.43
2018-09-02T12:23:05.841Z,3.80
2018-09-02T12:25:36.482Z,5.70
2018-09-02T12:28:05.394Z,4.53
2018-09-02T12:30:36.653Z,4.53
2018-09-02T12:33:05.494Z,5.60
2018-09-02T12:35:34.405Z,4.03
2018-09-02T12:38:05.609Z,3.33
2018-09-02T12:40:39.090Z,3.63
2018-09-02T12:43:08.281Z,3.30
2018-09-02T12:45:37.170Z,2.23
2018-09-02T12:48:06.237Z,3.23
2018-09-02T12:50:34.999Z,3.73
2018-09-02T12:53:05.599Z,3.43
2018-09-02T12:55:35.977Z,2.73
2018-09-02T12:58:04.894Z,2.80
2018-09-02T13:00:34.612Z,3.60
2018-09-02T13:03:05.138Z,4.03
2018-09-02T13:05:33.904Z,4.73
2018-09-02T13:08:05.545Z,4.00
2018-09-02T13:10:34.480Z,2.90
2018-09-02T13:13:03.887Z,4.40
2018-09-02T13:15:33.725Z,4.07
2018-09-02T13:18:02.921Z,3.63
2018-09-02T13:20:31.858Z,3.67
2018-09-02T13:23:00.684Z,5.33
2018-09-02T13:25:29.476Z,3.83
2018-09-02T13:27:58.896Z,2.83
2018-09-02T13:30:27.716Z,6.73
2018-09-02T13:32:56.540Z,3.27
2018-09-02T13:35:27.691Z,2.13
2018-09-02T13:37:56.550Z,4.63
2018-09-02T13:40:25.424Z,2.40
2018-09-02T13:42:54.253Z,2.47
2018-09-02T13:45:23.126Z,4.00
2018-09-02T13:47:51.882Z,3.17
2018-09-02T13:50:20.754Z,2.50
2018-09-02T13:52:49.520Z,2.70
2018-09-02T13:55:18.294Z,2.70
2018-09-02T13:57:47.086Z,3.33
2018-09-02T14:00:15.860Z,3.67
2018-09-02T14:02:45.094Z,4.33
2018-09-02T14:05:13.896Z,5.30
2018-09-02T14:07:42.734Z,2.40
2018-09-02T14:10:11.513Z,3.10
2018-09-02T14:12:40.391Z,2.10
2018-09-02T14:15:09.413Z,9.23
2018-09-02T14:17:38.242Z,1.87
2018-09-02T14:20:10.163Z,3.50
2018-09-02T14:22:41.092Z,3.70
2018-09-02T14:25:10.235Z,3.60
2018-09-02T14:27:40.322Z,4.27
2018-09-02T14:30:09.191Z,7.43
2018-09-02T14:32:39.124Z,1.97
2018-09-02T14:35:08.793Z,4.43
2018-09-02T14:37:43.431Z,2.20
2018-09-02T14:40:15.016Z,3.03
2018-09-02T14:42:45.117Z,4.27
2018-09-02T14:45:15.255Z,3.70
2018-09-02T14:47:45.377Z,3.67
2018-09-02T14:50:15.808Z,3.00
2018-09-02T14:52:44.605Z,3.57
2018-09-02T14:55:15.148Z,2.90
2018-09-02T14:57:45.565Z,3.83
2018-09-02T15:00:16.878Z,3.70
2018-09-02T15:02:46.770Z,3.50
2018-09-02T15:05:17.638Z,2.80
2018-09-02T15:07:48.291Z,6.77
2018-09-02T15:10:17.954Z,4.83
2018-09-02T15:12:46.813Z,3.70
2018-09-02T15:15:15.611Z,4.63
2018-09-02T15:17:44.368Z,8.00
2018-09-02T15:20:19.800Z,3.17
2018-09-02T15:22:48.754Z,2.53
2018-09-02T15:25:17.815Z,2.87
2018-09-02T15:27:54.563Z,4.43
2018-09-02T15:30:24.197Z,3.20
2018-09-02T15:32:54.440Z,3.90
2018-09-02T15:35:24.798Z,4.73
2018-09-02T15:37:54.547Z,3.80
2018-09-02T15:40:25.154Z,2.90
2018-09-02T15:43:01.918Z,2.07
2018-09-02T15:45:30.900Z,3.30
2018-09-02T15:48:00.120Z,3.97
2018-09-02T15:50:30.319Z,3.27
2018-09-02T15:52:59.594Z,3.40
2018-09-02T15:55:31.339Z,4.30
2018-09-02T15:58:00.268Z,4.03
2018-09-02T16:00:29.098Z,3.40
2018-09-02T16:02:57.884Z,5.37
2018-09-02T16:05:26.764Z,3.63
2018-09-02T16:07:55.795Z,3.27
2018-09-02T16:10:24.821Z,4.10
2018-09-02T16:12:54.077Z,3.70
2018-09-02T16:15:23.278Z,4.97
2018-09-02T16:17:52.132Z,3.70
2018-09-02T16:20:20.989Z,3.57
2018-09-02T16:22:49.964Z,4.70
2018-09-02T16:25:18.756Z,9.37
2018-09-02T16:27:47.544Z,3.30
2018-09-02T16:30:16.405Z,3.47
2018-09-02T16:32:45.305Z,3.83
2018-09-02T16:35:14.057Z,3.20
2018-09-02T16:37:42.887Z,3.10
2018-09-02T16:40:11.700Z,3.00
2018-09-02T16:42:40.516Z,6.83
2018-09-02T16:45:09.356Z,7.10
2018-09-02T16:47:38.173Z,4.97
2018-09-02T16:50:07.266Z,2.53
2018-09-02T16:52:36.016Z,2.40
2018-09-02T16:55:06.819Z,2.40
2018-09-02T16:57:39.476Z,4.00
2018-09-02T17:00:10.243Z,3.50
2018-09-02T17:02:39.150Z,2.80
2018-09-02T17:05:16.720Z,3.50
2018-09-02T17:07:45.655Z,3.17
2018-09-02T17:10:16.497Z,2.30
2018-09-02T17:12:45.446Z,4.00
2018-09-02T17:15:14.208Z,3.83
2018-09-02T17:17:44.686Z,24.37
2018-09-02T17:20:17.774Z,6.07
2018-09-02T17:22:46.922Z,4.03
2018-09-02T17:25:15.797Z,4.67
2018-09-02T17:27:46.557Z,4.57
2018-09-02T17:30:15.812Z,3.70
2018-09-02T17:32:45.020Z,4.40
2018-09-02T17:35:16.051Z,3.90
2018-09-02T17:37:44.922Z,3.93
2018-09-02T17:40:13.781Z,3.43
2018-09-02T17:42:43.540Z,6.37
2018-09-02T17:45:12.528Z,2.97
2018-09-02T17:47:41.363Z,3.33
2018-09-02T17:50:10.172Z,6.53
2018-09-02T17:52:40.724Z,4.73
2018-09-02T17:55:10.182Z,6.77
2018-09-02T17:57:42.211Z,4.80
2018-09-02T18:00:14.748Z,3.60
2018-09-02T18:02:43.731Z,4.43
2018-09-02T18:05:12.553Z,3.70
2018-09-02T18:07:41.423Z,4.50
2018-09-02T18:10:10.215Z,2.60
2018-09-02T18:12:39.040Z,5.70
2018-09-02T18:15:07.973Z,7.30
2018-09-02T18:17:36.833Z,4.77
2018-09-02T18:20:07.490Z,3.30
2018-09-02T18:22:38.066Z,4.47
2018-09-02T18:25:08.129Z,6.47
2018-09-02T18:27:40.472Z,5.10
2018-09-02T18:30:09.424Z,2.40
2018-09-02T18:32:38.287Z,7.90
2018-09-02T18:35:07.074Z,3.20
2018-09-02T18:37:36.088Z,7.83
2018-09-02T18:40:06.216Z,5.00
2018-09-02T18:42:36.305Z,4.73
2018-09-02T18:45:06.217Z,4.83
2018-09-02T18:47:35.455Z,4.93
2018-09-02T18:50:04.841Z,3.43
2018-09-02T18:52:34.419Z,7.73
2018-09-02T18:55:03.709Z,4.07
2018-09-02T18:57:33.680Z,3.93
2018-09-02T19:00:03.837Z,3.37
2018-09-02T19:02:33.781Z,3.93
2018-09-02T19:05:03.920Z,4.43
2018-09-02T19:07:33.900Z,4.30
2018-09-02T19:10:04.684Z,2.80
2018-09-02T19:12:34.658Z,3.77
2018-09-02T19:15:04.237Z,6.10
2018-09-02T19:17:33.750Z,5.57
2018-09-02T19:20:03.539Z,5.73
2018-09-02T19:22:33.684Z,4.83
2018-09-02T19:25:03.075Z,5.37
2018-09-02T19:27:33.910Z,4.60
2018-09-02T19:30:04.599Z,5.00
2018-09-02T19:32:34.836Z,4.70
2018-09-02T19:35:05.926Z,4.00
2018-09-02T19:37:36.186Z,5.57
2018-09-02T19:40:05.872Z,4.00
2018-09-02T19:42:36.110Z,3.70
2018-09-02T19:45:05.600Z,6.93
2018-09-02T19:47:34.890Z,4.30
2018-09-02T19:50:04.500Z,4.37
2018-09-02T19:52:33.336Z,5.33
2018-09-02T19:55:02.182Z,4.43
2018-09-02T19:57:31.031Z,4.97
2018-09-02T19:59:59.897Z,5.93
2018-09-02T20:02:29.275Z,6.93
2018-09-02T20:04:58.783Z,3.77
2018-09-02T20:07:28.397Z,7.23
2018-09-02T20:09:58.137Z,4.50
2018-09-02T20:12:27.365Z,12.83
2018-09-02T20:14:56.132Z,6.00
2018-09-02T20:17:24.938Z,7.57
2018-09-02T20:19:53.756Z,7.20
2018-09-02T20:22:22.542Z,7.37
2018-09-02T20:24:52.196Z,7.37
2018-09-02T20:27:21.037Z,5.60
2018-09-02T20:29:49.854Z,6.03
2018-09-02T20:32:18.681Z,7.70
2018-09-02T20:34:47.883Z,6.20
2018-09-02T20:37:16.640Z,7.63
2018-09-02T20:39:45.430Z,8.03
2018-09-02T20:42:14.245Z,7.40
2018-09-02T20:44:43.010Z,8.13
2018-09-02T20:47:11.767Z,5.53
2018-09-02T20:49:40.566Z,6.70
2018-09-02T20:52:09.685Z,5.37
2018-09-02T20:54:38.529Z,7.30
2018-09-02T20:57:07.321Z,5.80
2018-09-02T20:59:36.197Z,7.47
2018-09-02T21:02:04.999Z,10.07
2018-09-02T21:04:33.915Z,7.70
2018-09-02T21:07:02.744Z,10.30
2018-09-02T21:09:31.573Z,7.13
2018-09-02T21:12:00.456Z,12.03
2018-09-02T21:14:29.396Z,7.87
2018-09-02T21:16:58.182Z,7.93
2018-09-02T21:19:26.985Z,8.60
2018-09-02T21:21:55.833Z,7.90
2018-09-02T21:24:24.605Z,8.03
2018-09-02T21:26:53.387Z,7.17
2018-09-02T21:29:22.317Z,8.77
2018-09-02T21:31:51.109Z,12.17
2018-09-02T21:34:19.952Z,8.10
2018-09-02T21:36:49.132Z,9.77
2018-09-02T21:39:18.026Z,8.73
2018-09-02T21:41:46.852Z,11.93
2018-09-02T21:44:15.666Z,8.60
2018-09-02T21:46:44.439Z,12.70
2018-09-02T21:49:13.284Z,8.90
2018-09-02T21:51:42.103Z,8.83
2018-09-02T21:54:10.864Z,10.73
2018-09-02T21:56:39.721Z,9.03
2018-09-02T21:59:08.492Z,9.40
2018-09-02T22:01:37.332Z,10.83
2018-09-02T22:04:06.289Z,11.00
2018-09-02T22:06:35.054Z,11.47
2018-09-02T22:09:08.193Z,13.40
2018-09-02T22:11:36.973Z,10.50
2018-09-02T22:14:05.768Z,10.93
2018-09-02T22:16:34.823Z,9.77
2018-09-02T22:19:03.592Z,9.27
2018-09-02T22:21:32.379Z,13.57
2018-09-02T22:24:01.197Z,11.37
2018-09-02T22:26:30.370Z,10.90
2018-09-02T22:28:59.246Z,13.77
2018-09-02T22:31:28.104Z,14.40
2018-09-02T22:33:58.681Z,11.90
2018-09-02T22:36:27.462Z,14.50
2018-09-02T22:38:56.227Z,15.20
2018-09-02T22:41:25.140Z,15.97
2018-09-02T22:43:54.061Z,14.70
2018-09-02T22:46:22.819Z,13.70
2018-09-02T22:48:52.007Z,12.40
2018-09-02T22:51:20.846Z,13.73
2018-09-02T22:53:49.656Z,14.13
2018-09-02T22:56:18.464Z,13.40
2018-09-02T22:58:47.249Z,14.40
2018-09-02T23:01:16.066Z,14.00
2018-09-02T23:03:45.115Z,11.97
2018-09-02T23:06:13.929Z,19.00
2018-09-02T23:08:42.720Z,12.53
2018-09-02T23:11:11.919Z,16.30
2018-09-02T23:13:40.722Z,16.87
2018-09-02T23:16:09.535Z,14.67
2018-09-02T23:18:40.877Z,16.73
2018-09-02T23:21:11.734Z,18.80
2018-09-02T23:23:42.624Z,15.37
2018-09-02T23:26:13.132Z,17.27
2018-09-02T23:28:41.975Z,14.93
2018-09-02T23:31:10.822Z,15.30
2018-09-02T23:33:39.641Z,14.63
2018-09-02T23:36:08.471Z,14.83
2018-09-02T23:38:37.270Z,18.73
2018-09-02T23:41:06.325Z,18.53
2018-09-02T23:43:35.136Z,12.60
2018-09-02T23:46:04.262Z,12.20
2018-09-02T23:48:33.025Z,17.73
2018-09-02T23:51:01.811Z,16.20
2018-09-02T23:53:30.612Z,15.67
2018-09-02T23:55:59.779Z,18.83
2018-09-02T23:58:28.560Z,12.17
